AirNav   Pilot Hours Calculator
 
 1132 users online  

10PA Piac Heliport
Essington, Pennsylvania, USA

GOING TO ESSINGTON?


FAA INFORMATION EFFECTIVE 07 NOVEMBER 2019

Location

FAA Identifier: 10PA
Lat/Long: 39-51-45.4050N 075-18-37.6740W
39-51.756750N 075-18.627900W
39.8626125,-75.3104650
(estimated)
Elevation: 8 ft. / 2 m (estimated)
Variation: 12W (1990)
From city: 1 mile W of ESSINGTON, PA
Time zone: UTC -5 (UTC -4 during Daylight Saving Time)
Zip code: 19029

Heliport Operations

Heliport use: Private use. Permission required prior to landing
Activation date: 02/1992
Control tower: no
ARTCC: NEW YORK CENTER
FSS: WILLIAMSPORT FLIGHT SERVICE STATION
Attendance: MON-SAT 0800-1800
Wind indicator: yes
Segmented circle: no

Heliport Communications

WX ASOS at PHL (3 nm E): PHONE 215-492-9617
WX AWOS-3T at OQN (15 nm NW): 121.4 ((610) 692-6190)
WX AWOS-3 at LOM (17 nm N): 118.925 (215-646-1068)
WX ASOS at ILG (18 nm SW): PHONE 302-328-1536
WX ASOS at PNE (19 nm NE): PHONE 215-677-0146

Nearby radio navigation aids

VOR radial/distance  VOR name  Freq  Var
OODr009/13.6WOODSTOWN VORTAC112.8010W
MXEr110/16.9MODENA VORTAC113.2009W
DQOr061/17.6DUPONT VORTAC114.0010W
PTWr161/24.4POTTSTOWN VORTAC116.5009W
VCNr331/25.1CEDAR LAKE VOR/DME115.2010W
ARDr228/29.9YARDLEY VOR/DME108.2010W
GXUr267/34.0MC GUIRE VORTAC110.6012W
ENOr023/39.0SMYRNA VORTAC111.4009W

 
NDB name  Hdg/Dist  Freq  Var  ID
AMBLER196/15.827512WING .. -. --.
RAINBOW354/27.936311WRNB .-. -. -...

Heliport Services

Fuel available: 100LL
FUEL AVBL ONLY BY SPECIAL REQUEST.

Runway Information

Helipad H1

Dimensions: 30 x 30 ft. / 9 x 9 m
Surface: turf
Traffic pattern: leftleft

Heliport Ownership and Management from official FAA records

Ownership: Privately-owned
Owner: VILANDCO
SECOND ST W
ESSINGTON, PA 19029
Phone 610-521-5700
Manager: F.W. PIASECKI
SECOND ST W
ESSINGTON, PA 19029
Phone 610-521-5700

Additional Remarks

A52-H1 80 FT TWR 350 FT NNE; 120 FT PLINES 400 FT & 55 FT SMOKE STACK 100 FT NE OF HELIPAD.
FREQ 123.35 AVBL.
FOR CD CTC PHILADELPHIA APCH AT 800-354-9884.

Instrument Procedures

There are no published instrument procedures at 10PA.

Some nearby airports with instrument procedures:

KPHL - Philadelphia International Airport (3 nm E)
7N7 - Spitfire Aerodrome (9 nm SW)
KOQN - Brandywine Regional Airport (15 nm NW)
17N - Cross Keys Airport (16 nm SE)
KLOM - Wings Field Airport (17 nm N)
19N - Camden County Airport (17 nm E)
KILG - New Castle Airport (18 nm SW)
KPNE - Northeast Philadelphia Airport (19 nm NE)
 
Loc | Ops | Rwys | IFR | FBO | Links
Com | Nav | Svcs | Stats | Notes
Area around 10PA (Piac Heliport)
 
Road maps at: MapQuest Bing Google
 
Aerial photo
No photo
 
Sectional chart

 
Airport distance calculator
Flying to Piac Heliport? Find the distance to fly.

From to 10PA

Sunrise and sunset
Times for 15-Nov-2019
 Local
(UTC-5)
 Zulu
(UTC)
Morning civil twilight06:1811:18
Sunrise06:4711:47
Sunset16:4521:45
Evening civil twilight17:1422:14

Current date and time
Zulu (UTC)  15-Nov-2019 22:04:44
Local (UTC-5)  15-Nov-2019 17:04:44
 
METAR
KPHL 
4nm E 
152154Z 28007KT 10SM BKN250 09/M06 A3019 RMK AO2 SLP222 T00941061 $
KOQN 
15nm NW 
152155Z AUTO 27003KT 10SM 07/M03 A3017 RMK AO2
KLOM 
17nm N 
152155Z AUTO 28003KT 10SM CLR 07/M04 A3017 RMK AO2 T00731036
KILG 
18nm SW 
152151Z 34005KT 10SM CLR 07/M05 A3019 RMK AO2 SLP223 T00671050 $
KPNE 
19nm NE 
152154Z 27006KT 10SM CLR 09/M05 A3018 RMK AO2 SLP220 T00891050
TAF
KPHL 
4nm E 
151739Z 1518/1624 25008KT P6SM SCT250 FM152200 29006KT P6SM SCT250 FM160200 32006KT P6SM SCT250 FM160500 36008KT P6SM FEW250 FM160900 02012G16KT P6SM FEW250 FM161500 04015G24KT P6SM FEW250
KILG 
18nm SW 
151739Z 1518/1618 30005KT P6SM FEW250 FM160100 33007KT P6SM SCT250 FM160500 01010G18KT P6SM FEW250 FM161100 02013G21KT P6SM FEW250 FM161400 03016G24KT P6SM FEW250
KPNE 
19nm NE 
151739Z 1518/1618 30012KT P6SM SCT250 FM152200 29008KT P6SM SCT250 FM160200 33005KT P6SM SCT250 FM160500 36008KT P6SM FEW250 FM161000 02012KT P6SM FEW250 FM161400 04015KT P6SM FEW250
NOTAMs
Click for the latest NOTAMs
NOTAMs are issued by the DoD/FAA and will open in a separate window not controlled by AirNav.

 

 
 

Would you like to see your business listed on this page?

 If your business provides an interesting product or service to pilots, flight crews, aircraft, or users of the Piac Heliport, you should consider listing it here.  To start the listing process, click on the button below
 
Add a business
 

Other Pages about Piac Heliport

Update a link
 
Copyright © AirNav, LLC. All rights reserved. Privacy Policy  Contact